sensor_id;sensor_type;location;lat;lon;timestamp;P1;durP1;ratioP1;P2;durP2;ratioP2
59434;SDS011;45241;49.768;8.636;2022-09-01T00:01:27;1.70;;;1.52;;
59434;SDS011;45241;49.768;8.636;2022-09-01T00:03:55;3.75;;;1.88;;
59434;SDS011;45241;49.768;8.636;2022-09-01T00:06:27;2.58;;;1.63;;
59434;SDS011;45241;49.768;8.636;2022-09-01T00:08:54;2.63;;;1.63;;
59434;SDS011;45241;49.768;8.636;2022-09-01T00:11:22;3.72;;;1.73;;
59434;SDS011;45241;49.768;8.636;2022-09-01T00:13:49;2.08;;;1.70;;
59434;SDS011;45241;49.768;8.636;2022-09-01T00:16:15;3.92;;;1.67;;
59434;SDS011;45241;49.768;8.636;2022-09-01T00:18:42;4.15;;;1.90;;
59434;SDS011;45241;49.768;8.636;2022-09-01T00:21:14;1.60;;;1.50;;
59434;SDS011;45241;49.768;8.636;2022-09-01T00:23:41;2.17;;;1.73;;
59434;SDS011;45241;49.768;8.636;2022-09-01T00:26:06;2.47;;;1.50;;
59434;SDS011;45241;49.768;8.636;2022-09-01T00:28:32;2.75;;;1.75;;
59434;SDS011;45241;49.768;8.636;2022-09-01T00:30:58;2.03;;;1.50;;
59434;SDS011;45241;49.768;8.636;2022-09-01T00:33:24;2.60;;;1.55;;
59434;SDS011;45241;49.768;8.636;2022-09-01T00:35:50;3.22;;;1.95;;
59434;SDS011;45241;49.768;8.636;2022-09-01T00:38:16;3.45;;;1.73;;
59434;SDS011;45241;49.768;8.636;2022-09-01T00:40:41;2.05;;;1.65;;
59434;SDS011;45241;49.768;8.636;2022-09-01T00:43:10;2.78;;;1.60;;
59434;SDS011;45241;49.768;8.636;2022-09-01T00:45:37;1.77;;;1.60;;
59434;SDS011;45241;49.768;8.636;2022-09-01T00:48:03;2.10;;;1.67;;
59434;SDS011;45241;49.768;8.636;2022-09-01T00:50:29;2.28;;;1.77;;
59434;SDS011;45241;49.768;8.636;2022-09-01T00:52:56;2.15;;;1.73;;
59434;SDS011;45241;49.768;8.636;2022-09-01T00:55:23;4.50;;;1.80;;
59434;SDS011;45241;49.768;8.636;2022-09-01T00:57:51;2.65;;;2.00;;
59434;SDS011;45241;49.768;8.636;2022-09-01T01:00:21;2.17;;;1.70;;
59434;SDS011;45241;49.768;8.636;2022-09-01T01:02:49;1.88;;;1.65;;
59434;SDS011;45241;49.768;8.636;2022-09-01T01:05:22;2.22;;;1.67;;
59434;SDS011;45241;49.768;8.636;2022-09-01T01:07:58;3.63;;;1.90;;
59434;SDS011;45241;49.768;8.636;2022-09-01T01:10:26;1.95;;;1.60;;
59434;SDS011;45241;49.768;8.636;2022-09-01T01:12:56;3.17;;;1.75;;
59434;SDS011;45241;49.768;8.636;2022-09-01T01:15:25;3.22;;;1.80;;
59434;SDS011;45241;49.768;8.636;2022-09-01T01:17:51;3.38;;;1.60;;
59434;SDS011;45241;49.768;8.636;2022-09-01T01:20:16;2.67;;;1.77;;
59434;SDS011;45241;49.768;8.636;2022-09-01T01:25:49;1.95;;;1.60;;
59434;SDS011;45241;49.768;8.636;2022-09-01T01:28:22;2.50;;;1.60;;
59434;SDS011;45241;49.768;8.636;2022-09-01T01:30:55;3.17;;;1.60;;
59434;SDS011;45241;49.768;8.636;2022-09-01T01:33:28;1.85;;;1.60;;
59434;SDS011;45241;49.768;8.636;2022-09-01T01:35:56;1.80;;;1.55;;
59434;SDS011;45241;49.768;8.636;2022-09-01T01:38:24;3.65;;;2.05;;
59434;SDS011;45241;49.768;8.636;2022-09-01T01:40:51;3.58;;;1.73;;
59434;SDS011;45241;49.768;8.636;2022-09-01T01:43:18;1.90;;;1.70;;
59434;SDS011;45241;49.768;8.636;2022-09-01T01:45:47;2.42;;;1.80;;
59434;SDS011;45241;49.768;8.636;2022-09-01T01:48:17;4.25;;;1.77;;
59434;SDS011;45241;49.768;8.636;2022-09-01T01:50:47;1.70;;;1.60;;
59434;SDS011;45241;49.768;8.636;2022-09-01T01:53:12;2.05;;;1.85;;
59434;SDS011;45241;49.768;8.636;2022-09-01T01:55:44;2.33;;;1.60;;
59434;SDS011;45241;49.768;8.636;2022-09-01T01:58:13;1.92;;;1.75;;
59434;SDS011;45241;49.768;8.636;2022-09-01T02:00:39;1.90;;;1.50;;
59434;SDS011;45241;49.768;8.636;2022-09-01T02:03:09;2.00;;;1.70;;
59434;SDS011;45241;49.768;8.636;2022-09-01T02:05:36;4.38;;;1.83;;
59434;SDS011;45241;49.768;8.636;2022-09-01T02:08:03;2.60;;;1.50;;
59434;SDS011;45241;49.768;8.636;2022-09-01T02:10:32;2.10;;;1.43;;
59434;SDS011;45241;49.768;8.636;2022-09-01T02:13:00;3.58;;;1.95;;
59434;SDS011;45241;49.768;8.636;2022-09-01T02:15:30;2.13;;;1.60;;
59434;SDS011;45241;49.768;8.636;2022-09-01T02:18:03;2.00;;;1.67;;
59434;SDS011;45241;49.768;8.636;2022-09-01T02:20:29;2.90;;;1.60;;
59434;SDS011;45241;49.768;8.636;2022-09-01T02:22:57;1.75;;;1.60;;
59434;SDS011;45241;49.768;8.636;2022-09-01T02:25:22;1.95;;;1.45;;
59434;SDS011;45241;49.768;8.636;2022-09-01T02:27:48;2.75;;;1.80;;
59434;SDS011;45241;49.768;8.636;2022-09-01T02:30:18;2.20;;;1.80;;
59434;SDS011;45241;49.768;8.636;2022-09-01T02:32:44;2.75;;;1.73;;
59434;SDS011;45241;49.768;8.636;2022-09-01T02:35:09;4.50;;;1.70;;
59434;SDS011;45241;49.768;8.636;2022-09-01T02:37:36;2.22;;;1.75;;
59434;SDS011;45241;49.768;8.636;2022-09-01T02:40:04;2.00;;;1.80;;
59434;SDS011;45241;49.768;8.636;2022-09-01T02:42:34;2.70;;;1.80;;
59434;SDS011;45241;49.768;8.636;2022-09-01T02:45:00;2.45;;;1.83;;
59434;SDS011;45241;49.768;8.636;2022-09-01T02:47:25;4.13;;;1.90;;
59434;SDS011;45241;49.768;8.636;2022-09-01T02:49:52;4.63;;;2.10;;
59434;SDS011;45241;49.768;8.636;2022-09-01T02:52:18;1.88;;;1.73;;
59434;SDS011;45241;49.768;8.636;2022-09-01T02:54:46;3.45;;;2.25;;
59434;SDS011;45241;49.768;8.636;2022-09-01T02:57:13;2.28;;;2.03;;
59434;SDS011;45241;49.768;8.636;2022-09-01T02:59:40;2.50;;;1.70;;
59434;SDS011;45241;49.768;8.636;2022-09-01T03:02:07;2.25;;;2.03;;
59434;SDS011;45241;49.768;8.636;2022-09-01T03:04:33;3.03;;;2.22;;
59434;SDS011;45241;49.768;8.636;2022-09-01T03:07:00;3.67;;;2.00;;
59434;SDS011;45241;49.768;8.636;2022-09-01T03:09:26;2.45;;;2.22;;
59434;SDS011;45241;49.768;8.636;2022-09-01T03:11:52;3.97;;;2.08;;
59434;SDS011;45241;49.768;8.636;2022-09-01T03:14:19;3.05;;;2.08;;
59434;SDS011;45241;49.768;8.636;2022-09-01T03:16:45;2.35;;;2.10;;
59434;SDS011;45241;49.768;8.636;2022-09-01T03:19:11;2.72;;;2.25;;
59434;SDS011;45241;49.768;8.636;2022-09-01T03:21:38;2.58;;;1.77;;
59434;SDS011;45241;49.768;8.636;2022-09-01T03:24:05;2.60;;;2.10;;
59434;SDS011;45241;49.768;8.636;2022-09-01T03:26:32;2.53;;;2.15;;
59434;SDS011;45241;49.768;8.636;2022-09-01T03:28:58;2.15;;;1.90;;
59434;SDS011;45241;49.768;8.636;2022-09-01T03:31:24;2.00;;;1.80;;
59434;SDS011;45241;49.768;8.636;2022-09-01T03:33:51;2.70;;;1.80;;
59434;SDS011;45241;49.768;8.636;2022-09-01T03:36:18;2.15;;;1.90;;
59434;SDS011;45241;49.768;8.636;2022-09-01T03:38:47;3.15;;;1.90;;
59434;SDS011;45241;49.768;8.636;2022-09-01T03:41:15;2.10;;;1.70;;
59434;SDS011;45241;49.768;8.636;2022-09-01T03:43:42;4.18;;;1.85;;
59434;SDS011;45241;49.768;8.636;2022-09-01T03:46:09;3.22;;;1.98;;
59434;SDS011;45241;49.768;8.636;2022-09-01T03:48:40;3.15;;;2.38;;
59434;SDS011;45241;49.768;8.636;2022-09-01T03:51:06;2.30;;;1.80;;
59434;SDS011;45241;49.768;8.636;2022-09-01T03:53:33;3.65;;;2.00;;
59434;SDS011;45241;49.768;8.636;2022-09-01T03:56:02;2.15;;;1.92;;
59434;SDS011;45241;49.768;8.636;2022-09-01T03:58:29;2.38;;;2.15;;
59434;SDS011;45241;49.768;8.636;2022-09-01T04:00:56;2.55;;;2.15;;
59434;SDS011;45241;49.768;8.636;2022-09-01T04:03:26;3.03;;;2.25;;
59434;SDS011;45241;49.768;8.636;2022-09-01T04:05:56;2.33;;;2.13;;
59434;SDS011;45241;49.768;8.636;2022-09-01T04:08:22;3.05;;;1.92;;
59434;SDS011;45241;49.768;8.636;2022-09-01T04:10:52;2.55;;;2.13;;
59434;SDS011;45241;49.768;8.636;2022-09-01T04:13:22;2.55;;;2.28;;
59434;SDS011;45241;49.768;8.636;2022-09-01T04:15:51;2.20;;;2.00;;
59434;SDS011;45241;49.768;8.636;2022-09-01T04:18:17;3.22;;;2.03;;
59434;SDS011;45241;49.768;8.636;2022-09-01T04:23:17;2.67;;;2.00;;
59434;SDS011;45241;49.768;8.636;2022-09-01T04:26:10;3.67;;;2.00;;
59434;SDS011;45241;49.768;8.636;2022-09-01T04:28:42;4.38;;;2.05;;
59434;SDS011;45241;49.768;8.636;2022-09-01T04:31:15;2.30;;;2.10;;
59434;SDS011;45241;49.768;8.636;2022-09-01T04:33:49;3.50;;;2.28;;
59434;SDS011;45241;49.768;8.636;2022-09-01T04:36:21;3.72;;;2.10;;
59434;SDS011;45241;49.768;8.636;2022-09-01T04:38:54;1.98;;;1.75;;
59434;SDS011;45241;49.768;8.636;2022-09-01T04:41:33;2.50;;;1.85;;
59434;SDS011;45241;49.768;8.636;2022-09-01T04:44:01;3.80;;;1.90;;
59434;SDS011;45241;49.768;8.636;2022-09-01T04:46:29;2.60;;;2.30;;
59434;SDS011;45241;49.768;8.636;2022-09-01T04:48:57;2.30;;;2.05;;
59434;SDS011;45241;49.768;8.636;2022-09-01T04:51:23;2.55;;;2.10;;
59434;SDS011;45241;49.768;8.636;2022-09-01T04:53:53;2.58;;;2.03;;
59434;SDS011;45241;49.768;8.636;2022-09-01T04:56:20;5.50;;;2.22;;
59434;SDS011;45241;49.768;8.636;2022-09-01T04:58:47;3.33;;;2.20;;
59434;SDS011;45241;49.768;8.636;2022-09-01T05:01:17;2.75;;;2.22;;
59434;SDS011;45241;49.768;8.636;2022-09-01T05:03:44;3.50;;;2.20;;
59434;SDS011;45241;49.768;8.636;2022-09-01T05:06:15;2.80;;;2.00;;
59434;SDS011;45241;49.768;8.636;2022-09-01T05:08:43;3.88;;;2.10;;
59434;SDS011;45241;49.768;8.636;2022-09-01T05:11:10;2.42;;;1.83;;
59434;SDS011;45241;49.768;8.636;2022-09-01T05:13:36;2.45;;;2.00;;
59434;SDS011;45241;49.768;8.636;2022-09-01T05:16:06;3.55;;;2.38;;
59434;SDS011;45241;49.768;8.636;2022-09-01T05:18:38;2.33;;;2.10;;
59434;SDS011;45241;49.768;8.636;2022-09-01T05:23:35;2.33;;;1.75;;
59434;SDS011;45241;49.768;8.636;2022-09-01T05:26:14;2.83;;;2.20;;
59434;SDS011;45241;49.768;8.636;2022-09-01T05:28:46;2.35;;;2.00;;
59434;SDS011;45241;49.768;8.636;2022-09-01T05:31:13;2.92;;;2.20;;
59434;SDS011;45241;49.768;8.636;2022-09-01T05:36:10;4.47;;;2.20;;
59434;SDS011;45241;49.768;8.636;2022-09-01T05:38:37;2.92;;;2.20;;
59434;SDS011;45241;49.768;8.636;2022-09-01T05:41:06;2.40;;;2.20;;
59434;SDS011;45241;49.768;8.636;2022-09-01T05:43:34;4.13;;;2.20;;
59434;SDS011;45241;49.768;8.636;2022-09-01T05:46:01;2.72;;;2.05;;
59434;SDS011;45241;49.768;8.636;2022-09-01T05:48:30;3.95;;;2.30;;
59434;SDS011;45241;49.768;8.636;2022-09-01T05:50:56;3.08;;;2.03;;
59434;SDS011;45241;49.768;8.636;2022-09-01T05:53:23;3.38;;;1.90;;
59434;SDS011;45241;49.768;8.636;2022-09-01T05:55:52;2.38;;;2.10;;
59434;SDS011;45241;49.768;8.636;2022-09-01T05:58:21;3.08;;;2.30;;
59434;SDS011;45241;49.768;8.636;2022-09-01T06:00:50;2.67;;;1.85;;
59434;SDS011;45241;49.768;8.636;2022-09-01T06:03:18;3.38;;;2.20;;
59434;SDS011;45241;49.768;8.636;2022-09-01T06:05:46;2.75;;;2.17;;
59434;SDS011;45241;49.768;8.636;2022-09-01T06:08:16;3.53;;;2.20;;
59434;SDS011;45241;49.768;8.636;2022-09-01T06:10:46;2.20;;;2.00;;
59434;SDS011;45241;49.768;8.636;2022-09-01T06:13:14;2.53;;;2.20;;
59434;SDS011;45241;49.768;8.636;2022-09-01T06:15:42;1.95;;;1.85;;
59434;SDS011;45241;49.768;8.636;2022-09-01T06:18:09;2.50;;;2.30;;
59434;SDS011;45241;49.768;8.636;2022-09-01T06:20:39;3.83;;;2.10;;
59434;SDS011;45241;49.768;8.636;2022-09-01T06:23:07;3.47;;;2.30;;
59434;SDS011;45241;49.768;8.636;2022-09-01T06:25:36;2.50;;;2.25;;
59434;SDS011;45241;49.768;8.636;2022-09-01T06:28:03;3.42;;;2.30;;
59434;SDS011;45241;49.768;8.636;2022-09-01T06:30:30;3.30;;;2.25;;
59434;SDS011;45241;49.768;8.636;2022-09-01T06:32:57;4.18;;;2.25;;
59434;SDS011;45241;49.768;8.636;2022-09-01T06:35:25;2.58;;;2.30;;
59434;SDS011;45241;49.768;8.636;2022-09-01T06:37:54;3.65;;;2.50;;
59434;SDS011;45241;49.768;8.636;2022-09-01T06:40:20;3.63;;;2.35;;
59434;SDS011;45241;49.768;8.636;2022-09-01T06:42:49;4.32;;;2.40;;
59434;SDS011;45241;49.768;8.636;2022-09-01T06:45:17;2.92;;;2.22;;
59434;SDS011;45241;49.768;8.636;2022-09-01T06:47:45;4.78;;;2.40;;
59434;SDS011;45241;49.768;8.636;2022-09-01T06:50:12;2.65;;;2.08;;
59434;SDS011;45241;49.768;8.636;2022-09-01T06:52:40;4.82;;;2.35;;
59434;SDS011;45241;49.768;8.636;2022-09-01T06:55:09;4.97;;;2.20;;
59434;SDS011;45241;49.768;8.636;2022-09-01T06:57:37;3.45;;;2.20;;
59434;SDS011;45241;49.768;8.636;2022-09-01T07:00:06;3.28;;;2.03;;
59434;SDS011;45241;49.768;8.636;2022-09-01T07:02:39;3.00;;;2.20;;
59434;SDS011;45241;49.768;8.636;2022-09-01T07:05:05;2.53;;;2.25;;
59434;SDS011;45241;49.768;8.636;2022-09-01T07:07:31;2.75;;;2.00;;
59434;SDS011;45241;49.768;8.636;2022-09-01T07:09:58;3.13;;;2.13;;
59434;SDS011;45241;49.768;8.636;2022-09-01T07:12:23;4.18;;;2.40;;
59434;SDS011;45241;49.768;8.636;2022-09-01T07:14:49;2.08;;;1.95;;
59434;SDS011;45241;49.768;8.636;2022-09-01T07:17:14;2.72;;;1.77;;
59434;SDS011;45241;49.768;8.636;2022-09-01T07:19:40;2.28;;;1.67;;
59434;SDS011;45241;49.768;8.636;2022-09-01T07:22:05;2.55;;;1.90;;
59434;SDS011;45241;49.768;8.636;2022-09-01T07:24:30;2.95;;;2.35;;
59434;SDS011;45241;49.768;8.636;2022-09-01T07:26:57;4.85;;;2.28;;
59434;SDS011;45241;49.768;8.636;2022-09-01T07:29:22;4.20;;;2.10;;
59434;SDS011;45241;49.768;8.636;2022-09-01T07:31:49;2.10;;;1.80;;
59434;SDS011;45241;49.768;8.636;2022-09-01T07:34:19;2.67;;;2.10;;
59434;SDS011;45241;49.768;8.636;2022-09-01T07:36:45;3.45;;;2.03;;
59434;SDS011;45241;49.768;8.636;2022-09-01T07:39:11;4.82;;;2.25;;
59434;SDS011;45241;49.768;8.636;2022-09-01T07:41:38;2.35;;;2.10;;
59434;SDS011;45241;49.768;8.636;2022-09-01T07:44:06;3.75;;;1.77;;
59434;SDS011;45241;49.768;8.636;2022-09-01T07:46:34;2.58;;;2.38;;
59434;SDS011;45241;49.768;8.636;2022-09-01T07:49:00;3.95;;;2.00;;
59434;SDS011;45241;49.768;8.636;2022-09-01T07:51:27;3.10;;;2.13;;
59434;SDS011;45241;49.768;8.636;2022-09-01T07:53:54;3.28;;;2.05;;
59434;SDS011;45241;49.768;8.636;2022-09-01T07:56:20;2.67;;;2.15;;
59434;SDS011;45241;49.768;8.636;2022-09-01T07:58:48;2.25;;;2.05;;
59434;SDS011;45241;49.768;8.636;2022-09-01T08:01:15;5.03;;;2.33;;
59434;SDS011;45241;49.768;8.636;2022-09-01T08:03:43;2.20;;;1.83;;
59434;SDS011;45241;49.768;8.636;2022-09-01T08:06:11;2.03;;;1.80;;
59434;SDS011;45241;49.768;8.636;2022-09-01T08:08:39;2.80;;;2.17;;
59434;SDS011;45241;49.768;8.636;2022-09-01T08:11:05;2.95;;;1.98;;
59434;SDS011;45241;49.768;8.636;2022-09-01T08:13:33;2.95;;;1.70;;
59434;SDS011;45241;49.768;8.636;2022-09-01T08:16:02;2.33;;;2.10;;
59434;SDS011;45241;49.768;8.636;2022-09-01T08:18:28;3.40;;;2.40;;
59434;SDS011;45241;49.768;8.636;2022-09-01T08:20:54;3.67;;;2.33;;
59434;SDS011;45241;49.768;8.636;2022-09-01T08:23:19;2.22;;;2.03;;
59434;SDS011;45241;49.768;8.636;2022-09-01T08:25:47;4.00;;;2.25;;
59434;SDS011;45241;49.768;8.636;2022-09-01T08:28:13;3.53;;;2.15;;
59434;SDS011;45241;49.768;8.636;2022-09-01T08:30:40;5.88;;;2.13;;
59434;SDS011;45241;49.768;8.636;2022-09-01T08:33:07;2.08;;;1.88;;
59434;SDS011;45241;49.768;8.636;2022-09-01T08:35:36;2.30;;;2.07;;
59434;SDS011;45241;49.768;8.636;2022-09-01T08:38:06;3.35;;;2.40;;
59434;SDS011;45241;49.768;8.636;2022-09-01T08:40:31;2.47;;;2.00;;
59434;SDS011;45241;49.768;8.636;2022-09-01T08:43:01;2.20;;;2.00;;
59434;SDS011;45241;49.768;8.636;2022-09-01T08:45:49;4.78;;;2.22;;
59434;SDS011;45241;49.768;8.636;2022-09-01T08:48:21;3.08;;;2.28;;
59434;SDS011;45241;49.768;8.636;2022-09-01T08:50:53;2.05;;;1.85;;
59434;SDS011;45241;49.768;8.636;2022-09-01T08:53:32;9.45;;;2.60;;
59434;SDS011;45241;49.768;8.636;2022-09-01T08:56:05;3.25;;;2.25;;
59434;SDS011;45241;49.768;8.636;2022-09-01T08:58:33;4.40;;;2.42;;
59434;SDS011;45241;49.768;8.636;2022-09-01T09:01:00;3.13;;;2.47;;
59434;SDS011;45241;49.768;8.636;2022-09-01T09:03:38;4.13;;;2.65;;
59434;SDS011;45241;49.768;8.636;2022-09-01T09:06:28;2.78;;;2.53;;
59434;SDS011;45241;49.768;8.636;2022-09-01T09:09:07;2.67;;;2.40;;
59434;SDS011;45241;49.768;8.636;2022-09-01T09:17:12;2.38;;;2.00;;
59434;SDS011;45241;49.768;8.636;2022-09-01T09:19:42;4.68;;;2.30;;
59434;SDS011;45241;49.768;8.636;2022-09-01T09:22:10;3.85;;;2.30;;
59434;SDS011;45241;49.768;8.636;2022-09-01T09:27:41;3.65;;;2.30;;
59434;SDS011;45241;49.768;8.636;2022-09-01T09:30:10;4.15;;;2.20;;
59434;SDS011;45241;49.768;8.636;2022-09-01T09:32:51;3.92;;;2.17;;
59434;SDS011;45241;49.768;8.636;2022-09-01T09:40:36;3.17;;;2.25;;
59434;SDS011;45241;49.768;8.636;2022-09-01T09:43:03;2.45;;;2.00;;
59434;SDS011;45241;49.768;8.636;2022-09-01T09:45:36;2.95;;;1.83;;
59434;SDS011;45241;49.768;8.636;2022-09-01T09:48:26;2.17;;;1.98;;
59434;SDS011;45241;49.768;8.636;2022-09-01T09:50:54;2.67;;;2.20;;
59434;SDS011;45241;49.768;8.636;2022-09-01T09:53:26;4.00;;;2.05;;
59434;SDS011;45241;49.768;8.636;2022-09-01T09:58:42;3.80;;;2.00;;
59434;SDS011;45241;49.768;8.636;2022-09-01T10:03:53;2.85;;;2.00;;
59434;SDS011;45241;49.768;8.636;2022-09-01T10:09:03;3.55;;;1.88;;
59434;SDS011;45241;49.768;8.636;2022-09-01T10:14:13;2.70;;;1.75;;
59434;SDS011;45241;49.768;8.636;2022-09-01T10:16:42;3.92;;;2.00;;
59434;SDS011;45241;49.768;8.636;2022-09-01T10:19:11;1.87;;;1.60;;
59434;SDS011;45241;49.768;8.636;2022-09-01T10:21:41;2.30;;;1.77;;
59434;SDS011;45241;49.768;8.636;2022-09-01T10:24:17;2.28;;;2.08;;
59434;SDS011;45241;49.768;8.636;2022-09-01T10:26:55;2.70;;;2.00;;
59434;SDS011;45241;49.768;8.636;2022-09-01T10:31:57;3.05;;;1.80;;
59434;SDS011;45241;49.768;8.636;2022-09-01T10:34:34;7.13;;;1.77;;
59434;SDS011;45241;49.768;8.636;2022-09-01T10:37:01;2.75;;;1.92;;
59434;SDS011;45241;49.768;8.636;2022-09-01T10:39:27;3.38;;;1.92;;
59434;SDS011;45241;49.768;8.636;2022-09-01T10:44:26;3.38;;;2.03;;
59434;SDS011;45241;49.768;8.636;2022-09-01T10:47:07;2.45;;;2.00;;
59434;SDS011;45241;49.768;8.636;2022-09-01T10:52:10;3.38;;;2.00;;
59434;SDS011;45241;49.768;8.636;2022-09-01T10:57:08;2.05;;;1.85;;
59434;SDS011;45241;49.768;8.636;2022-09-01T10:59:45;2.97;;;1.90;;
59434;SDS011;45241;49.768;8.636;2022-09-01T11:02:18;2.20;;;2.00;;
59434;SDS011;45241;49.768;8.636;2022-09-01T11:09:43;2.15;;;1.65;;
59434;SDS011;45241;49.768;8.636;2022-09-01T11:12:56;2.28;;;1.83;;
59434;SDS011;45241;49.768;8.636;2022-09-01T11:25:50;2.63;;;1.90;;
59434;SDS011;45241;49.768;8.636;2022-09-01T11:30:51;2.40;;;1.50;;
59434;SDS011;45241;49.768;8.636;2022-09-01T11:33:25;3.33;;;1.80;;
59434;SDS011;45241;49.768;8.636;2022-09-01T11:35:57;8.05;;;2.00;;
59434;SDS011;45241;49.768;8.636;2022-09-01T11:38:25;3.95;;;2.10;;
59434;SDS011;45241;49.768;8.636;2022-09-01T11:40:55;2.65;;;1.90;;
59434;SDS011;45241;49.768;8.636;2022-09-01T11:43:21;1.77;;;1.67;;
59434;SDS011;45241;49.768;8.636;2022-09-01T11:46:33;2.78;;;2.15;;
59434;SDS011;45241;49.768;8.636;2022-09-01T11:48:48;2.08;;;1.83;;
59434;SDS011;45241;49.768;8.636;2022-09-01T11:51:13;3.00;;;1.85;;
59434;SDS011;45241;49.768;8.636;2022-09-01T11:53:40;4.20;;;1.92;;
59434;SDS011;45241;49.768;8.636;2022-09-01T11:56:14;1.90;;;1.70;;
59434;SDS011;45241;49.768;8.636;2022-09-01T11:58:42;3.38;;;1.85;;
59434;SDS011;45241;49.768;8.636;2022-09-01T12:03:41;3.05;;;1.85;;
59434;SDS011;45241;49.768;8.636;2022-09-01T12:06:07;1.75;;;1.65;;
59434;SDS011;45241;49.768;8.636;2022-09-01T12:08:36;2.10;;;1.90;;
59434;SDS011;45241;49.768;8.636;2022-09-01T12:11:11;2.25;;;1.75;;
59434;SDS011;45241;49.768;8.636;2022-09-01T12:13:53;1.63;;;1.52;;
59434;SDS011;45241;49.768;8.636;2022-09-01T12:16:20;3.20;;;1.67;;
59434;SDS011;45241;49.768;8.636;2022-09-01T12:18:47;2.25;;;1.70;;
59434;SDS011;45241;49.768;8.636;2022-09-01T12:21:25;2.13;;;1.77;;
59434;SDS011;45241;49.768;8.636;2022-09-01T12:24:08;2.13;;;1.90;;
59434;SDS011;45241;49.768;8.636;2022-09-01T12:26:36;1.85;;;1.67;;
59434;SDS011;45241;49.768;8.636;2022-09-01T12:29:03;1.80;;;1.70;;
59434;SDS011;45241;49.768;8.636;2022-09-01T12:31:31;3.45;;;1.90;;
59434;SDS011;45241;49.768;8.636;2022-09-01T12:33:57;2.80;;;2.00;;
59434;SDS011;45241;49.768;8.636;2022-09-01T12:36:26;2.72;;;1.85;;
59434;SDS011;45241;49.768;8.636;2022-09-01T12:41:42;2.80;;;1.80;;
59434;SDS011;45241;49.768;8.636;2022-09-01T12:47:08;1.65;;;1.55;;
59434;SDS011;45241;49.768;8.636;2022-09-01T12:52:16;4.30;;;1.70;;
59434;SDS011;45241;49.768;8.636;2022-09-01T12:54:50;3.13;;;1.92;;
59434;SDS011;45241;49.768;8.636;2022-09-01T12:57:28;2.40;;;1.80;;
59434;SDS011;45241;49.768;8.636;2022-09-01T13:02:37;3.88;;;1.80;;
59434;SDS011;45241;49.768;8.636;2022-09-01T13:10:21;2.35;;;1.90;;
59434;SDS011;45241;49.768;8.636;2022-09-01T13:12:49;4.78;;;1.85;;
59434;SDS011;45241;49.768;8.636;2022-09-01T13:15:15;2.20;;;2.00;;
59434;SDS011;45241;49.768;8.636;2022-09-01T13:17:41;2.05;;;1.90;;
59434;SDS011;45241;49.768;8.636;2022-09-01T13:20:07;2.17;;;1.58;;
59434;SDS011;45241;49.768;8.636;2022-09-01T13:22:34;1.73;;;1.63;;
59434;SDS011;45241;49.768;8.636;2022-09-01T13:25:00;2.33;;;1.70;;
59434;SDS011;45241;49.768;8.636;2022-09-01T13:27:26;1.92;;;1.67;;
59434;SDS011;45241;49.768;8.636;2022-09-01T13:29:51;2.30;;;1.70;;
59434;SDS011;45241;49.768;8.636;2022-09-01T13:32:17;3.67;;;1.77;;
59434;SDS011;45241;49.768;8.636;2022-09-01T13:34:43;2.00;;;1.80;;
59434;SDS011;45241;49.768;8.636;2022-09-01T13:37:08;1.98;;;1.73;;
59434;SDS011;45241;49.768;8.636;2022-09-01T13:39:34;1.98;;;1.77;;
59434;SDS011;45241;49.768;8.636;2022-09-01T13:41:59;3.78;;;2.47;;
59434;SDS011;45241;49.768;8.636;2022-09-01T13:44:24;3.05;;;1.52;;
59434;SDS011;45241;49.768;8.636;2022-09-01T13:46:50;2.70;;;1.90;;
59434;SDS011;45241;49.768;8.636;2022-09-01T13:49:15;3.78;;;1.60;;
59434;SDS011;45241;49.768;8.636;2022-09-01T13:51:41;1.92;;;1.55;;
59434;SDS011;45241;49.768;8.636;2022-09-01T13:54:06;4.15;;;1.50;;
59434;SDS011;45241;49.768;8.636;2022-09-01T13:56:31;1.98;;;1.70;;
59434;SDS011;45241;49.768;8.636;2022-09-01T13:58:57;1.90;;;1.80;;
59434;SDS011;45241;49.768;8.636;2022-09-01T14:01:22;1.98;;;1.80;;
59434;SDS011;45241;49.768;8.636;2022-09-01T14:03:48;1.70;;;1.60;;
59434;SDS011;45241;49.768;8.636;2022-09-01T14:06:14;2.78;;;1.85;;
59434;SDS011;45241;49.768;8.636;2022-09-01T14:08:39;3.70;;;1.70;;
59434;SDS011;45241;49.768;8.636;2022-09-01T14:11:05;1.98;;;1.65;;
59434;SDS011;45241;49.768;8.636;2022-09-01T14:13:31;2.10;;;1.80;;
59434;SDS011;45241;49.768;8.636;2022-09-01T14:15:58;3.25;;;1.67;;
59434;SDS011;45241;49.768;8.636;2022-09-01T14:18:24;1.95;;;1.85;;
59434;SDS011;45241;49.768;8.636;2022-09-01T14:20:52;2.05;;;1.60;;
59434;SDS011;45241;49.768;8.636;2022-09-01T14:23:21;1.88;;;1.38;;
59434;SDS011;45241;49.768;8.636;2022-09-01T14:25:47;3.45;;;1.60;;
59434;SDS011;45241;49.768;8.636;2022-09-01T14:28:14;2.85;;;1.70;;
59434;SDS011;45241;49.768;8.636;2022-09-01T14:30:40;2.17;;;1.83;;
59434;SDS011;45241;49.768;8.636;2022-09-01T14:33:07;3.63;;;1.50;;
59434;SDS011;45241;49.768;8.636;2022-09-01T14:35:33;2.35;;;1.73;;
59434;SDS011;45241;49.768;8.636;2022-09-01T14:38:06;4.63;;;2.20;;
59434;SDS011;45241;49.768;8.636;2022-09-01T14:40:33;1.70;;;1.60;;
59434;SDS011;45241;49.768;8.636;2022-09-01T14:43:01;1.63;;;1.52;;
59434;SDS011;45241;49.768;8.636;2022-09-01T14:45:27;1.77;;;1.63;;
59434;SDS011;45241;49.768;8.636;2022-09-01T14:47:54;2.00;;;1.80;;
59434;SDS011;45241;49.768;8.636;2022-09-01T14:50:22;1.60;;;1.48;;
59434;SDS011;45241;49.768;8.636;2022-09-01T14:52:49;2.15;;;1.63;;
59434;SDS011;45241;49.768;8.636;2022-09-01T14:55:17;1.73;;;1.63;;
59434;SDS011;45241;49.768;8.636;2022-09-01T14:57:42;1.80;;;1.70;;
59434;SDS011;45241;49.768;8.636;2022-09-01T15:00:08;3.00;;;1.70;;
59434;SDS011;45241;49.768;8.636;2022-09-01T15:02:36;2.17;;;1.60;;
59434;SDS011;45241;49.768;8.636;2022-09-01T15:05:03;1.77;;;1.42;;
59434;SDS011;45241;49.768;8.636;2022-09-01T15:07:30;1.98;;;1.70;;
59434;SDS011;45241;49.768;8.636;2022-09-01T15:09:55;2.20;;;1.63;;
59434;SDS011;45241;49.768;8.636;2022-09-01T15:12:22;1.92;;;1.50;;
59434;SDS011;45241;49.768;8.636;2022-09-01T15:14:48;1.77;;;1.48;;
59434;SDS011;45241;49.768;8.636;2022-09-01T15:17:14;2.33;;;1.60;;
59434;SDS011;45241;49.768;8.636;2022-09-01T15:19:39;2.20;;;1.63;;
59434;SDS011;45241;49.768;8.636;2022-09-01T15:22:05;1.77;;;1.67;;
59434;SDS011;45241;49.768;8.636;2022-09-01T15:24:31;1.90;;;1.70;;
59434;SDS011;45241;49.768;8.636;2022-09-01T15:26:56;2.17;;;1.60;;
59434;SDS011;45241;49.768;8.636;2022-09-01T15:29:21;3.25;;;1.58;;
59434;SDS011;45241;49.768;8.636;2022-09-01T15:31:47;3.03;;;1.58;;
59434;SDS011;45241;49.768;8.636;2022-09-01T15:34:12;3.22;;;1.40;;
59434;SDS011;45241;49.768;8.636;2022-09-01T15:36:38;2.92;;;1.58;;
59434;SDS011;45241;49.768;8.636;2022-09-01T15:39:05;2.90;;;1.70;;
59434;SDS011;45241;49.768;8.636;2022-09-01T15:41:32;3.45;;;1.73;;
59434;SDS011;45241;49.768;8.636;2022-09-01T15:43:58;2.13;;;1.50;;
59434;SDS011;45241;49.768;8.636;2022-09-01T15:46:26;1.80;;;1.63;;
59434;SDS011;45241;49.768;8.636;2022-09-01T15:48:57;1.85;;;1.40;;
59434;SDS011;45241;49.768;8.636;2022-09-01T15:53:49;2.05;;;1.63;;
59434;SDS011;45241;49.768;8.636;2022-09-01T15:56:15;2.65;;;1.40;;
59434;SDS011;45241;49.768;8.636;2022-09-01T15:58:47;2.00;;;1.58;;
59434;SDS011;45241;49.768;8.636;2022-09-01T16:01:14;1.63;;;1.52;;
59434;SDS011;45241;49.768;8.636;2022-09-01T16:03:40;2.05;;;1.50;;
59434;SDS011;45241;49.768;8.636;2022-09-01T16:06:05;1.70;;;1.60;;
59434;SDS011;45241;49.768;8.636;2022-09-01T16:08:32;2.97;;;1.67;;
59434;SDS011;45241;49.768;8.636;2022-09-01T16:10:58;1.42;;;1.33;;
59434;SDS011;45241;49.768;8.636;2022-09-01T16:13:23;1.60;;;1.48;;
59434;SDS011;45241;49.768;8.636;2022-09-01T16:18:59;2.10;;;1.80;;
59434;SDS011;45241;49.768;8.636;2022-09-01T16:21:37;1.77;;;1.50;;
59434;SDS011;45241;49.768;8.636;2022-09-01T16:24:21;2.58;;;1.63;;